createdAt,value
2022-12-04T00:04:05.014Z,100645.81
2022-12-04T00:09:57.194Z,100656.09
2022-12-04T00:15:49.378Z,100660.75
2022-12-04T00:21:42.222Z,100636.72
2022-12-04T00:27:34.124Z,100646.72
2022-12-04T00:33:26.192Z,100639.63
2022-12-04T00:39:18.430Z,100643.50
2022-12-04T00:45:10.852Z,100644.16
2022-12-04T00:51:11.901Z,100640.94
2022-12-04T00:57:04.514Z,100628.44
2022-12-04T01:02:57.764Z,100625.88
2022-12-04T01:08:51.940Z,100624.53
2022-12-04T01:14:44.157Z,100616.34
2022-12-04T01:20:36.450Z,100594.06
2022-12-04T01:26:29.120Z,100604.75
2022-12-04T01:32:22.709Z,100595.13
2022-12-04T01:38:15.100Z,100599.75
2022-12-04T01:44:26.199Z,100600.34
2022-12-04T01:50:18.400Z,100601.75
2022-12-04T01:56:11.518Z,100600.47
2022-12-04T02:02:07.536Z,100578.88
2022-12-04T02:08:05.820Z,100589.63
2022-12-04T02:14:10.851Z,100594.16
2022-12-04T02:20:15.910Z,100594.16
2022-12-04T02:26:38.310Z,100579.41
2022-12-04T02:32:45.340Z,100575.41
2022-12-04T02:38:52.839Z,100573.97
2022-12-04T02:44:50.809Z,100579.94
2022-12-04T02:50:45.869Z,100584.69
2022-12-04T02:56:43.705Z,100578.47
2022-12-04T03:02:42.570Z,100581.13
2022-12-04T03:08:47.260Z,100581.31
2022-12-04T03:14:45.034Z,100577.69
2022-12-04T03:20:39.809Z,100575.44
2022-12-04T03:26:39.745Z,100573.38
2022-12-04T03:32:39.532Z,100581.16
2022-12-04T03:38:41.579Z,100590.34
2022-12-04T03:44:41.729Z,100576.31
2022-12-04T03:50:50.772Z,100583.25
2022-12-04T03:56:54.370Z,100582.94
2022-12-04T04:03:01.411Z,100580.78
2022-12-04T04:08:59.303Z,100567.03
2022-12-04T04:15:16.741Z,100562.53
2022-12-04T04:21:27.843Z,100555.44
2022-12-04T04:27:19.781Z,100557.78
2022-12-04T04:33:16.887Z,100552.66
2022-12-04T04:39:45.942Z,100550.63
2022-12-04T04:45:41.092Z,100546.34
2022-12-04T04:51:34.719Z,100548.09
2022-12-04T04:57:28.762Z,100550.88
2022-12-04T05:03:21.220Z,100543.00
2022-12-04T05:09:13.900Z,100553.69
2022-12-04T05:15:06.639Z,100555.72
2022-12-04T05:20:59.021Z,100571.38
2022-12-04T05:26:50.868Z,100569.69
2022-12-04T05:32:42.688Z,100564.06
2022-12-04T05:38:35.638Z,100555.38
2022-12-04T05:44:28.287Z,100561.88
2022-12-04T05:50:21.240Z,100554.94
2022-12-04T05:56:14.046Z,100568.50
2022-12-04T06:02:05.957Z,100559.03
2022-12-04T06:07:57.999Z,100566.81
2022-12-04T06:13:50.589Z,100578.94
2022-12-04T06:19:43.358Z,100589.59
2022-12-04T06:25:35.878Z,100594.16
2022-12-04T06:31:30.111Z,100588.13
2022-12-04T06:37:24.588Z,100588.53
2022-12-04T06:43:17.098Z,100597.44
2022-12-04T06:49:10.298Z,100597.13
2022-12-04T06:55:02.353Z,100581.78
2022-12-04T07:00:55.097Z,100582.69
2022-12-04T07:06:48.190Z,100584.75
2022-12-04T07:12:43.820Z,100585.06
2022-12-04T07:18:37.592Z,100568.63
2022-12-04T07:24:30.386Z,100579.34
2022-12-04T07:30:22.423Z,100569.41
2022-12-04T07:36:18.023Z,100576.72
2022-12-04T07:42:10.438Z,100593.63
2022-12-04T07:48:03.473Z,100605.50
2022-12-04T07:54:02.641Z,100601.31
2022-12-04T08:01:34.548Z,100584.66
2022-12-04T08:07:27.263Z,100577.34
2022-12-04T08:13:25.034Z,100591.59
2022-12-04T08:19:18.520Z,100595.75
2022-12-04T08:25:10.681Z,100603.84
2022-12-04T08:31:12.554Z,100596.44
2022-12-04T08:37:07.448Z,100585.56
2022-12-04T08:42:59.750Z,100586.38
2022-12-04T08:48:53.359Z,100597.69
2022-12-04T08:54:45.437Z,100609.59
2022-12-04T09:00:38.206Z,100617.88
2022-12-04T09:06:31.019Z,100607.84
2022-12-04T09:12:23.793Z,100599.81
2022-12-04T09:18:16.771Z,100605.22
2022-12-04T09:24:09.828Z,100595.97
2022-12-04T09:30:02.408Z,100597.09
2022-12-04T09:35:54.749Z,100610.19
2022-12-04T09:42:16.146Z,100595.09
2022-12-04T09:48:12.799Z,100600.53
2022-12-04T09:54:14.240Z,100590.94
2022-12-04T10:00:12.081Z,100586.63
2022-12-04T10:06:23.648Z,100577.84
2022-12-04T10:12:47.698Z,100571.25
2022-12-04T10:19:09.019Z,100567.41
2022-12-04T10:25:09.017Z,100573.16
2022-12-04T10:31:05.125Z,100566.03
2022-12-04T10:37:03.000Z,100557.84
2022-12-04T10:43:02.910Z,100566.88
2022-12-04T10:49:05.281Z,100553.41
2022-12-04T10:55:00.462Z,100534.88
2022-12-04T11:01:22.030Z,100531.09
2022-12-04T11:07:23.272Z,100535.22
2022-12-04T11:13:18.209Z,100531.97
2022-12-04T11:19:29.667Z,100523.72
2022-12-04T11:25:24.168Z,100523.22
2022-12-04T11:31:20.528Z,100511.16
2022-12-04T11:37:27.048Z,100504.63
2022-12-04T11:43:20.203Z,100500.19
2022-12-04T11:49:24.814Z,100497.28
2022-12-04T11:55:50.958Z,100491.16
2022-12-04T12:02:17.257Z,100509.38
2022-12-04T12:08:25.070Z,100492.78
2022-12-04T12:14:29.319Z,100485.56
2022-12-04T12:20:33.447Z,100481.56
2022-12-04T12:26:51.400Z,100500.84
2022-12-04T12:32:56.554Z,100500.69
2022-12-04T12:38:59.157Z,100495.31
2022-12-04T12:45:06.988Z,100508.78
2022-12-04T12:51:30.394Z,100495.44
2022-12-04T12:57:33.688Z,100503.25
2022-12-04T13:03:29.030Z,100487.59
2022-12-04T13:09:30.176Z,100477.56
2022-12-04T13:15:38.499Z,100474.88
2022-12-04T13:21:40.683Z,100480.78
2022-12-04T13:27:53.928Z,100463.56
2022-12-04T13:34:03.631Z,100451.34
2022-12-04T13:40:15.289Z,100445.97
2022-12-04T13:46:28.999Z,100449.72
2022-12-04T13:52:25.407Z,100457.59
2022-12-04T13:58:18.309Z,100465.47
2022-12-04T14:04:28.899Z,100476.53
2022-12-04T14:10:21.287Z,100478.59
2022-12-04T14:16:18.999Z,100482.16
2022-12-04T14:22:39.381Z,100488.31
2022-12-04T14:28:31.478Z,100494.97
2022-12-04T14:34:32.147Z,100495.91
2022-12-04T14:40:27.261Z,100500.84
2022-12-04T14:46:47.606Z,100503.88
2022-12-04T14:53:31.980Z,100509.47
2022-12-04T14:59:41.278Z,100501.38
2022-12-04T15:05:34.518Z,100502.88
2022-12-04T15:11:44.869Z,100492.75
2022-12-04T15:17:38.767Z,100493.81
2022-12-04T15:23:39.207Z,100501.75
2022-12-04T15:29:35.299Z,100495.00
2022-12-04T15:35:32.911Z,100494.25
2022-12-04T15:41:34.810Z,100513.41
2022-12-04T15:47:39.187Z,100512.28
2022-12-04T15:53:40.277Z,100516.09
2022-12-04T15:59:36.667Z,100523.19
2022-12-04T16:05:36.715Z,100523.06
2022-12-04T16:11:36.136Z,100525.53
2022-12-04T16:17:33.286Z,100521.75
2022-12-04T16:23:26.928Z,100532.84
2022-12-04T16:29:21.767Z,100516.72
2022-12-04T16:35:17.882Z,100517.03
2022-12-04T16:41:18.990Z,100525.47
2022-12-04T16:47:12.827Z,100518.13
2022-12-04T16:53:05.021Z,100526.44
2022-12-04T16:58:57.966Z,100529.28
2022-12-04T17:04:57.036Z,100530.72
2022-12-04T17:10:51.340Z,100544.09
2022-12-04T17:16:46.951Z,100543.31
2022-12-04T17:22:39.918Z,100545.78
2022-12-04T17:28:32.969Z,100546.78
2022-12-04T17:34:25.300Z,100553.44
2022-12-04T17:40:17.448Z,100550.72
2022-12-04T17:46:22.997Z,100543.44
2022-12-04T17:52:23.216Z,100551.53
2022-12-04T17:58:16.579Z,100544.78
2022-12-04T18:04:09.418Z,100543.94
2022-12-04T18:10:02.320Z,100552.38
2022-12-04T18:15:57.476Z,100528.56
2022-12-04T18:21:59.182Z,100522.31
2022-12-04T18:27:54.366Z,100525.75
2022-12-04T18:33:48.372Z,100526.88
2022-12-04T18:39:41.257Z,100521.63
2022-12-04T18:45:34.691Z,100528.22
2022-12-04T18:51:36.661Z,100532.50
2022-12-04T18:57:29.440Z,100529.22
2022-12-04T19:03:22.449Z,100523.63
2022-12-04T19:09:20.179Z,100527.63
2022-12-04T19:15:12.017Z,100534.56
2022-12-04T19:21:06.862Z,100528.22
2022-12-04T19:26:59.434Z,100535.50
2022-12-04T19:32:52.377Z,100525.81
2022-12-04T19:38:46.208Z,100547.13
2022-12-04T19:44:48.348Z,100533.31
2022-12-04T19:50:41.289Z,100543.28
2022-12-04T19:56:35.106Z,100549.59
2022-12-04T20:02:28.111Z,100541.09
2022-12-04T20:08:20.416Z,100539.53
2022-12-04T20:14:12.377Z,100551.66
2022-12-04T20:20:05.124Z,100549.53
2022-12-04T20:26:04.818Z,100558.97
2022-12-04T20:31:59.276Z,100555.19
2022-12-04T20:37:54.037Z,100557.94
2022-12-04T20:43:47.708Z,100560.28
2022-12-04T20:49:41.063Z,100545.47
2022-12-04T20:55:34.513Z,100553.28
2022-12-04T21:01:29.885Z,100544.06
2022-12-04T21:07:22.900Z,100540.13
2022-12-04T21:13:34.831Z,100534.78
2022-12-04T21:19:30.125Z,100521.56
2022-12-04T21:25:25.418Z,100527.78
2022-12-04T21:31:17.382Z,100520.56
2022-12-04T21:37:09.768Z,100515.56
2022-12-04T21:43:02.708Z,100507.53
2022-12-04T21:48:55.608Z,100526.09
2022-12-04T21:54:55.367Z,100510.66
2022-12-04T22:00:48.518Z,100523.56
2022-12-04T22:06:42.265Z,100510.94
2022-12-04T22:12:51.060Z,100511.88
2022-12-04T22:18:46.435Z,100508.31
2022-12-04T22:24:41.924Z,100490.00
2022-12-04T22:30:36.783Z,100511.03
2022-12-04T22:36:33.347Z,100497.66
2022-12-04T22:42:27.791Z,100495.00
2022-12-04T22:48:22.229Z,100493.31
2022-12-04T22:54:15.367Z,100480.25
2022-12-04T23:00:09.626Z,100480.78
2022-12-04T23:06:02.146Z,100477.97
2022-12-04T23:11:55.949Z,100478.22
2022-12-04T23:17:49.148Z,100469.31
2022-12-04T23:23:43.512Z,100460.75
2022-12-04T23:35:55.499Z,100471.22
2022-12-04T23:41:48.118Z,100478.03
2022-12-04T23:47:40.946Z,100465.59
2022-12-04T23:53:33.050Z,100460.91
2022-12-04T23:59:26.039Z,100466.94
